sensor_id;sensor_type;location;lat;lon;timestamp;P1;durP1;ratioP1;P2;durP2;ratioP2
13485;SDS011;6815;59.336;17.998;2023-12-20T00:00:54;5.47;;;1.87;;
13485;SDS011;6815;59.336;17.998;2023-12-20T00:03:19;7.73;;;1.47;;
13485;SDS011;6815;59.336;17.998;2023-12-20T00:05:45;6.40;;;1.73;;
13485;SDS011;6815;59.336;17.998;2023-12-20T00:08:10;10.07;;;2.20;;
13485;SDS011;6815;59.336;17.998;2023-12-20T00:10:35;10.03;;;2.00;;
13485;SDS011;6815;59.336;17.998;2023-12-20T00:13:01;7.43;;;2.00;;
13485;SDS011;6815;59.336;17.998;2023-12-20T00:15:26;13.87;;;2.40;;
13485;SDS011;6815;59.336;17.998;2023-12-20T00:17:51;6.90;;;1.57;;
13485;SDS011;6815;59.336;17.998;2023-12-20T00:20:17;8.00;;;1.80;;
13485;SDS011;6815;59.336;17.998;2023-12-20T00:22:42;9.47;;;1.67;;
13485;SDS011;6815;59.336;17.998;2023-12-20T00:25:07;8.43;;;2.03;;
13485;SDS011;6815;59.336;17.998;2023-12-20T00:27:33;5.80;;;1.70;;
13485;SDS011;6815;59.336;17.998;2023-12-20T00:29:58;8.23;;;1.90;;
13485;SDS011;6815;59.336;17.998;2023-12-20T00:32:23;7.93;;;1.90;;
13485;SDS011;6815;59.336;17.998;2023-12-20T00:34:48;7.50;;;1.87;;
13485;SDS011;6815;59.336;17.998;2023-12-20T00:37:14;6.43;;;1.73;;
13485;SDS011;6815;59.336;17.998;2023-12-20T00:39:39;9.90;;;2.30;;
13485;SDS011;6815;59.336;17.998;2023-12-20T00:42:05;10.73;;;2.63;;
13485;SDS011;6815;59.336;17.998;2023-12-20T00:44:30;7.00;;;1.80;;
13485;SDS011;6815;59.336;17.998;2023-12-20T00:46:55;10.70;;;2.07;;
13485;SDS011;6815;59.336;17.998;2023-12-20T00:49:20;10.93;;;2.37;;
13485;SDS011;6815;59.336;17.998;2023-12-20T00:51:46;6.97;;;2.00;;
13485;SDS011;6815;59.336;17.998;2023-12-20T00:54:12;9.00;;;2.17;;
13485;SDS011;6815;59.336;17.998;2023-12-20T00:56:38;9.83;;;2.63;;
13485;SDS011;6815;59.336;17.998;2023-12-20T00:59:03;7.27;;;2.13;;
13485;SDS011;6815;59.336;17.998;2023-12-20T01:01:29;7.77;;;2.00;;
13485;SDS011;6815;59.336;17.998;2023-12-20T01:03:54;14.70;;;2.93;;
13485;SDS011;6815;59.336;17.998;2023-12-20T01:06:20;14.83;;;3.40;;
13485;SDS011;6815;59.336;17.998;2023-12-20T01:08:45;10.27;;;2.40;;
13485;SDS011;6815;59.336;17.998;2023-12-20T01:11:11;9.67;;;1.93;;
13485;SDS011;6815;59.336;17.998;2023-12-20T01:13:36;9.37;;;2.17;;
13485;SDS011;6815;59.336;17.998;2023-12-20T01:16:02;9.93;;;2.13;;
13485;SDS011;6815;59.336;17.998;2023-12-20T01:18:27;13.20;;;2.53;;
13485;SDS011;6815;59.336;17.998;2023-12-20T01:20:53;10.93;;;1.83;;
13485;SDS011;6815;59.336;17.998;2023-12-20T01:23:18;8.37;;;2.60;;
13485;SDS011;6815;59.336;17.998;2023-12-20T01:25:43;12.03;;;2.73;;
13485;SDS011;6815;59.336;17.998;2023-12-20T01:28:09;12.17;;;2.17;;
13485;SDS011;6815;59.336;17.998;2023-12-20T01:30:34;15.20;;;2.27;;
13485;SDS011;6815;59.336;17.998;2023-12-20T01:33:00;13.53;;;2.10;;
13485;SDS011;6815;59.336;17.998;2023-12-20T01:35:25;8.17;;;2.03;;
13485;SDS011;6815;59.336;17.998;2023-12-20T01:37:50;11.53;;;2.17;;
13485;SDS011;6815;59.336;17.998;2023-12-20T01:40:16;14.10;;;2.83;;
13485;SDS011;6815;59.336;17.998;2023-12-20T01:42:41;12.10;;;2.00;;
13485;SDS011;6815;59.336;17.998;2023-12-20T01:45:07;9.07;;;1.60;;
13485;SDS011;6815;59.336;17.998;2023-12-20T01:47:32;11.07;;;2.03;;
13485;SDS011;6815;59.336;17.998;2023-12-20T01:49:58;8.13;;;1.80;;
13485;SDS011;6815;59.336;17.998;2023-12-20T01:52:24;9.43;;;2.20;;
13485;SDS011;6815;59.336;17.998;2023-12-20T01:54:50;8.83;;;1.80;;
13485;SDS011;6815;59.336;17.998;2023-12-20T01:57:16;9.97;;;2.00;;
13485;SDS011;6815;59.336;17.998;2023-12-20T01:59:41;6.00;;;2.00;;
13485;SDS011;6815;59.336;17.998;2023-12-20T02:02:06;6.87;;;1.73;;
13485;SDS011;6815;59.336;17.998;2023-12-20T02:04:32;11.43;;;2.60;;
13485;SDS011;6815;59.336;17.998;2023-12-20T02:06:58;10.87;;;2.33;;
13485;SDS011;6815;59.336;17.998;2023-12-20T02:09:24;13.57;;;2.10;;
13485;SDS011;6815;59.336;17.998;2023-12-20T02:11:49;13.37;;;1.97;;
13485;SDS011;6815;59.336;17.998;2023-12-20T02:14:14;11.50;;;2.83;;
13485;SDS011;6815;59.336;17.998;2023-12-20T02:16:40;7.20;;;1.77;;
13485;SDS011;6815;59.336;17.998;2023-12-20T02:19:05;12.30;;;2.80;;
13485;SDS011;6815;59.336;17.998;2023-12-20T02:21:34;7.63;;;1.93;;
13485;SDS011;6815;59.336;17.998;2023-12-20T02:24:02;9.47;;;2.00;;
13485;SDS011;6815;59.336;17.998;2023-12-20T02:26:27;6.63;;;1.53;;
13485;SDS011;6815;59.336;17.998;2023-12-20T02:28:53;11.47;;;2.23;;
13485;SDS011;6815;59.336;17.998;2023-12-20T02:31:22;6.70;;;1.70;;
13485;SDS011;6815;59.336;17.998;2023-12-20T02:33:48;6.50;;;2.03;;
13485;SDS011;6815;59.336;17.998;2023-12-20T02:36:13;10.83;;;2.13;;
13485;SDS011;6815;59.336;17.998;2023-12-20T02:38:38;7.53;;;2.07;;
13485;SDS011;6815;59.336;17.998;2023-12-20T02:41:04;8.10;;;1.90;;
13485;SDS011;6815;59.336;17.998;2023-12-20T02:43:29;8.80;;;2.00;;
13485;SDS011;6815;59.336;17.998;2023-12-20T02:45:54;8.43;;;1.90;;
13485;SDS011;6815;59.336;17.998;2023-12-20T02:48:19;6.07;;;1.77;;
13485;SDS011;6815;59.336;17.998;2023-12-20T02:50:45;13.20;;;2.17;;
13485;SDS011;6815;59.336;17.998;2023-12-20T02:53:11;8.10;;;2.20;;
13485;SDS011;6815;59.336;17.998;2023-12-20T02:55:36;7.47;;;1.60;;
13485;SDS011;6815;59.336;17.998;2023-12-20T02:58:02;10.70;;;2.00;;
13485;SDS011;6815;59.336;17.998;2023-12-20T03:00:27;8.97;;;1.97;;
13485;SDS011;6815;59.336;17.998;2023-12-20T03:02:52;11.10;;;2.10;;
13485;SDS011;6815;59.336;17.998;2023-12-20T03:05:18;9.87;;;2.30;;
13485;SDS011;6815;59.336;17.998;2023-12-20T03:07:43;11.23;;;2.20;;
13485;SDS011;6815;59.336;17.998;2023-12-20T03:10:08;4.13;;;1.60;;
13485;SDS011;6815;59.336;17.998;2023-12-20T03:12:34;8.53;;;1.83;;
13485;SDS011;6815;59.336;17.998;2023-12-20T03:15:00;9.53;;;1.43;;
13485;SDS011;6815;59.336;17.998;2023-12-20T03:17:25;8.87;;;1.83;;
13485;SDS011;6815;59.336;17.998;2023-12-20T03:19:50;7.93;;;1.70;;
13485;SDS011;6815;59.336;17.998;2023-12-20T03:22:16;9.80;;;1.87;;
13485;SDS011;6815;59.336;17.998;2023-12-20T03:24:41;10.37;;;1.70;;
13485;SDS011;6815;59.336;17.998;2023-12-20T03:27:06;13.17;;;2.57;;
13485;SDS011;6815;59.336;17.998;2023-12-20T03:29:31;5.30;;;1.83;;
13485;SDS011;6815;59.336;17.998;2023-12-20T03:31:57;7.00;;;1.90;;
13485;SDS011;6815;59.336;17.998;2023-12-20T03:34:22;5.97;;;1.60;;
13485;SDS011;6815;59.336;17.998;2023-12-20T03:36:47;5.73;;;1.70;;
13485;SDS011;6815;59.336;17.998;2023-12-20T03:39:13;8.17;;;1.87;;
13485;SDS011;6815;59.336;17.998;2023-12-20T03:41:38;10.13;;;2.13;;
13485;SDS011;6815;59.336;17.998;2023-12-20T03:44:03;9.33;;;1.97;;
13485;SDS011;6815;59.336;17.998;2023-12-20T03:46:29;5.37;;;1.70;;
13485;SDS011;6815;59.336;17.998;2023-12-20T03:48:54;6.97;;;2.10;;
13485;SDS011;6815;59.336;17.998;2023-12-20T03:51:19;7.60;;;2.20;;
13485;SDS011;6815;59.336;17.998;2023-12-20T03:53:45;10.33;;;1.67;;
13485;SDS011;6815;59.336;17.998;2023-12-20T03:56:10;5.23;;;1.50;;
13485;SDS011;6815;59.336;17.998;2023-12-20T03:58:35;11.90;;;2.20;;
13485;SDS011;6815;59.336;17.998;2023-12-20T04:01:00;8.33;;;1.60;;
13485;SDS011;6815;59.336;17.998;2023-12-20T04:03:26;12.97;;;1.97;;
13485;SDS011;6815;59.336;17.998;2023-12-20T04:05:51;8.83;;;1.83;;
13485;SDS011;6815;59.336;17.998;2023-12-20T04:08:17;8.20;;;1.70;;
13485;SDS011;6815;59.336;17.998;2023-12-20T04:10:42;7.27;;;1.77;;
13485;SDS011;6815;59.336;17.998;2023-12-20T04:13:07;7.57;;;1.63;;
13485;SDS011;6815;59.336;17.998;2023-12-20T04:15:32;6.33;;;2.07;;
13485;SDS011;6815;59.336;17.998;2023-12-20T04:17:58;7.63;;;1.70;;
13485;SDS011;6815;59.336;17.998;2023-12-20T04:20:23;7.33;;;1.97;;
13485;SDS011;6815;59.336;17.998;2023-12-20T04:22:48;11.07;;;1.80;;
13485;SDS011;6815;59.336;17.998;2023-12-20T04:25:14;8.43;;;2.13;;
13485;SDS011;6815;59.336;17.998;2023-12-20T04:27:39;7.70;;;2.23;;
13485;SDS011;6815;59.336;17.998;2023-12-20T04:30:04;7.57;;;1.80;;
13485;SDS011;6815;59.336;17.998;2023-12-20T04:32:30;6.27;;;1.40;;
13485;SDS011;6815;59.336;17.998;2023-12-20T04:34:56;7.97;;;1.63;;
13485;SDS011;6815;59.336;17.998;2023-12-20T04:37:21;3.97;;;1.37;;
13485;SDS011;6815;59.336;17.998;2023-12-20T04:39:47;4.83;;;1.30;;
13485;SDS011;6815;59.336;17.998;2023-12-20T04:42:12;7.70;;;1.50;;
13485;SDS011;6815;59.336;17.998;2023-12-20T04:44:37;6.77;;;1.83;;
13485;SDS011;6815;59.336;17.998;2023-12-20T04:47:03;7.33;;;1.67;;
13485;SDS011;6815;59.336;17.998;2023-12-20T04:49:28;7.53;;;1.83;;
13485;SDS011;6815;59.336;17.998;2023-12-20T04:51:54;7.47;;;1.50;;
13485;SDS011;6815;59.336;17.998;2023-12-20T04:54:19;6.53;;;1.93;;
13485;SDS011;6815;59.336;17.998;2023-12-20T04:56:44;5.50;;;1.90;;
13485;SDS011;6815;59.336;17.998;2023-12-20T04:59:09;6.70;;;1.47;;
13485;SDS011;6815;59.336;17.998;2023-12-20T05:01:35;7.23;;;1.63;;
13485;SDS011;6815;59.336;17.998;2023-12-20T05:04:00;5.90;;;1.80;;
13485;SDS011;6815;59.336;17.998;2023-12-20T05:06:25;10.97;;;2.23;;
13485;SDS011;6815;59.336;17.998;2023-12-20T05:08:51;6.33;;;2.00;;
13485;SDS011;6815;59.336;17.998;2023-12-20T05:11:16;7.97;;;1.40;;
13485;SDS011;6815;59.336;17.998;2023-12-20T05:13:42;8.70;;;2.03;;
13485;SDS011;6815;59.336;17.998;2023-12-20T05:16:07;4.40;;;1.63;;
13485;SDS011;6815;59.336;17.998;2023-12-20T05:18:33;5.23;;;1.57;;
13485;SDS011;6815;59.336;17.998;2023-12-20T05:20:59;7.27;;;1.77;;
13485;SDS011;6815;59.336;17.998;2023-12-20T05:23:24;6.47;;;2.00;;
13485;SDS011;6815;59.336;17.998;2023-12-20T05:25:49;5.47;;;1.67;;
13485;SDS011;6815;59.336;17.998;2023-12-20T05:28:15;5.37;;;1.77;;
13485;SDS011;6815;59.336;17.998;2023-12-20T05:30:40;5.17;;;1.80;;
13485;SDS011;6815;59.336;17.998;2023-12-20T05:33:05;5.83;;;1.60;;
13485;SDS011;6815;59.336;17.998;2023-12-20T05:35:31;9.10;;;1.83;;
13485;SDS011;6815;59.336;17.998;2023-12-20T05:37:56;4.30;;;1.53;;
13485;SDS011;6815;59.336;17.998;2023-12-20T05:40:21;4.83;;;1.53;;
13485;SDS011;6815;59.336;17.998;2023-12-20T05:42:46;5.07;;;1.50;;
13485;SDS011;6815;59.336;17.998;2023-12-20T05:45:14;8.40;;;1.73;;
13485;SDS011;6815;59.336;17.998;2023-12-20T05:47:39;5.73;;;1.60;;
13485;SDS011;6815;59.336;17.998;2023-12-20T05:50:04;4.30;;;1.40;;
13485;SDS011;6815;59.336;17.998;2023-12-20T05:52:30;6.90;;;2.10;;
13485;SDS011;6815;59.336;17.998;2023-12-20T05:54:55;4.57;;;1.83;;
13485;SDS011;6815;59.336;17.998;2023-12-20T05:57:22;7.93;;;1.30;;
13485;SDS011;6815;59.336;17.998;2023-12-20T05:59:48;10.70;;;2.07;;
13485;SDS011;6815;59.336;17.998;2023-12-20T06:02:13;4.70;;;1.70;;
13485;SDS011;6815;59.336;17.998;2023-12-20T06:04:41;8.50;;;1.77;;
13485;SDS011;6815;59.336;17.998;2023-12-20T06:07:07;4.83;;;1.60;;
13485;SDS011;6815;59.336;17.998;2023-12-20T06:09:32;8.87;;;1.90;;
13485;SDS011;6815;59.336;17.998;2023-12-20T06:11:57;5.70;;;1.83;;
13485;SDS011;6815;59.336;17.998;2023-12-20T06:14:22;5.10;;;2.03;;
13485;SDS011;6815;59.336;17.998;2023-12-20T06:16:48;5.60;;;2.13;;
13485;SDS011;6815;59.336;17.998;2023-12-20T06:19:13;4.57;;;1.80;;
13485;SDS011;6815;59.336;17.998;2023-12-20T06:21:39;5.47;;;2.00;;
13485;SDS011;6815;59.336;17.998;2023-12-20T06:24:04;7.27;;;2.60;;
13485;SDS011;6815;59.336;17.998;2023-12-20T06:26:30;5.73;;;2.10;;
13485;SDS011;6815;59.336;17.998;2023-12-20T06:28:55;7.57;;;2.53;;
13485;SDS011;6815;59.336;17.998;2023-12-20T06:31:20;6.40;;;2.50;;
13485;SDS011;6815;59.336;17.998;2023-12-20T06:33:46;7.57;;;2.43;;
13485;SDS011;6815;59.336;17.998;2023-12-20T06:36:11;7.37;;;2.10;;
13485;SDS011;6815;59.336;17.998;2023-12-20T06:38:38;5.53;;;2.13;;
13485;SDS011;6815;59.336;17.998;2023-12-20T06:41:03;7.73;;;2.50;;
13485;SDS011;6815;59.336;17.998;2023-12-20T06:43:35;6.33;;;2.50;;
13485;SDS011;6815;59.336;17.998;2023-12-20T06:46:00;9.47;;;2.53;;
13485;SDS011;6815;59.336;17.998;2023-12-20T06:48:26;7.17;;;2.50;;
13485;SDS011;6815;59.336;17.998;2023-12-20T06:50:51;8.83;;;2.40;;
13485;SDS011;6815;59.336;17.998;2023-12-20T06:53:16;10.00;;;2.90;;
13485;SDS011;6815;59.336;17.998;2023-12-20T06:55:42;11.03;;;3.60;;
13485;SDS011;6815;59.336;17.998;2023-12-20T06:58:07;6.40;;;2.40;;
13485;SDS011;6815;59.336;17.998;2023-12-20T07:00:32;7.50;;;2.43;;
13485;SDS011;6815;59.336;17.998;2023-12-20T07:02:58;7.27;;;2.50;;
13485;SDS011;6815;59.336;17.998;2023-12-20T07:05:24;6.43;;;2.43;;
13485;SDS011;6815;59.336;17.998;2023-12-20T07:07:49;11.17;;;2.87;;
13485;SDS011;6815;59.336;17.998;2023-12-20T07:10:14;11.07;;;3.23;;
13485;SDS011;6815;59.336;17.998;2023-12-20T07:12:40;10.57;;;4.20;;
13485;SDS011;6815;59.336;17.998;2023-12-20T07:15:05;10.73;;;4.00;;
13485;SDS011;6815;59.336;17.998;2023-12-20T07:17:32;12.57;;;4.37;;
13485;SDS011;6815;59.336;17.998;2023-12-20T07:19:58;12.60;;;5.53;;
13485;SDS011;6815;59.336;17.998;2023-12-20T07:22:23;11.20;;;4.63;;
13485;SDS011;6815;59.336;17.998;2023-12-20T07:24:48;12.47;;;4.70;;
13485;SDS011;6815;59.336;17.998;2023-12-20T07:27:14;17.93;;;5.53;;
13485;SDS011;6815;59.336;17.998;2023-12-20T07:29:40;10.67;;;4.10;;
13485;SDS011;6815;59.336;17.998;2023-12-20T07:32:05;11.40;;;4.57;;
13485;SDS011;6815;59.336;17.998;2023-12-20T07:34:30;11.90;;;4.83;;
13485;SDS011;6815;59.336;17.998;2023-12-20T07:36:56;12.47;;;5.73;;
13485;SDS011;6815;59.336;17.998;2023-12-20T07:39:21;15.53;;;6.40;;
13485;SDS011;6815;59.336;17.998;2023-12-20T07:41:46;15.03;;;6.47;;
13485;SDS011;6815;59.336;17.998;2023-12-20T07:44:12;16.27;;;5.90;;
13485;SDS011;6815;59.336;17.998;2023-12-20T07:46:37;15.70;;;6.53;;
13485;SDS011;6815;59.336;17.998;2023-12-20T07:49:03;12.43;;;5.63;;
13485;SDS011;6815;59.336;17.998;2023-12-20T07:51:28;12.27;;;5.17;;
13485;SDS011;6815;59.336;17.998;2023-12-20T07:53:53;13.67;;;5.10;;
13485;SDS011;6815;59.336;17.998;2023-12-20T07:56:19;17.23;;;6.03;;
13485;SDS011;6815;59.336;17.998;2023-12-20T07:58:44;13.50;;;4.93;;
13485;SDS011;6815;59.336;17.998;2023-12-20T08:01:10;13.07;;;5.57;;
13485;SDS011;6815;59.336;17.998;2023-12-20T08:03:36;10.00;;;4.83;;
13485;SDS011;6815;59.336;17.998;2023-12-20T08:06:01;11.00;;;3.80;;
13485;SDS011;6815;59.336;17.998;2023-12-20T08:08:27;8.57;;;4.23;;
13485;SDS011;6815;59.336;17.998;2023-12-20T08:10:52;12.50;;;3.80;;
13485;SDS011;6815;59.336;17.998;2023-12-20T08:13:17;9.23;;;4.17;;
13485;SDS011;6815;59.336;17.998;2023-12-20T08:15:43;13.17;;;3.97;;
13485;SDS011;6815;59.336;17.998;2023-12-20T08:18:08;10.00;;;3.63;;
13485;SDS011;6815;59.336;17.998;2023-12-20T08:20:33;8.70;;;3.27;;
13485;SDS011;6815;59.336;17.998;2023-12-20T08:22:58;12.47;;;3.43;;
13485;SDS011;6815;59.336;17.998;2023-12-20T08:25:24;11.17;;;3.47;;
13485;SDS011;6815;59.336;17.998;2023-12-20T08:27:49;9.33;;;3.37;;
13485;SDS011;6815;59.336;17.998;2023-12-20T08:30:14;8.60;;;3.50;;
13485;SDS011;6815;59.336;17.998;2023-12-20T08:32:42;11.37;;;3.50;;
13485;SDS011;6815;59.336;17.998;2023-12-20T08:35:07;9.67;;;4.07;;
13485;SDS011;6815;59.336;17.998;2023-12-20T08:37:32;8.87;;;3.47;;
13485;SDS011;6815;59.336;17.998;2023-12-20T08:39:58;14.43;;;4.17;;
13485;SDS011;6815;59.336;17.998;2023-12-20T08:42:23;10.27;;;3.50;;
13485;SDS011;6815;59.336;17.998;2023-12-20T08:44:49;8.13;;;3.67;;
13485;SDS011;6815;59.336;17.998;2023-12-20T08:47:15;10.90;;;3.63;;
13485;SDS011;6815;59.336;17.998;2023-12-20T08:49:41;8.63;;;3.53;;
13485;SDS011;6815;59.336;17.998;2023-12-20T08:52:06;12.20;;;3.50;;
13485;SDS011;6815;59.336;17.998;2023-12-20T08:54:31;10.60;;;3.20;;
13485;SDS011;6815;59.336;17.998;2023-12-20T08:56:56;7.63;;;2.90;;
13485;SDS011;6815;59.336;17.998;2023-12-20T08:59:22;8.87;;;3.50;;
13485;SDS011;6815;59.336;17.998;2023-12-20T09:01:47;8.83;;;3.20;;
13485;SDS011;6815;59.336;17.998;2023-12-20T09:04:13;10.80;;;4.60;;
13485;SDS011;6815;59.336;17.998;2023-12-20T09:06:38;12.67;;;3.17;;
13485;SDS011;6815;59.336;17.998;2023-12-20T09:09:04;11.70;;;3.60;;
13485;SDS011;6815;59.336;17.998;2023-12-20T09:11:29;11.80;;;3.93;;
13485;SDS011;6815;59.336;17.998;2023-12-20T09:13:54;8.87;;;3.90;;
13485;SDS011;6815;59.336;17.998;2023-12-20T09:16:20;10.50;;;3.77;;
13485;SDS011;6815;59.336;17.998;2023-12-20T09:18:45;10.17;;;3.63;;
13485;SDS011;6815;59.336;17.998;2023-12-20T09:21:10;14.40;;;3.77;;
13485;SDS011;6815;59.336;17.998;2023-12-20T09:23:36;10.13;;;3.70;;
13485;SDS011;6815;59.336;17.998;2023-12-20T09:26:02;10.73;;;3.63;;
13485;SDS011;6815;59.336;17.998;2023-12-20T09:28:27;8.80;;;2.90;;
13485;SDS011;6815;59.336;17.998;2023-12-20T09:30:52;7.73;;;3.50;;
13485;SDS011;6815;59.336;17.998;2023-12-20T09:33:18;11.07;;;3.50;;
13485;SDS011;6815;59.336;17.998;2023-12-20T09:35:43;7.50;;;3.67;;
13485;SDS011;6815;59.336;17.998;2023-12-20T09:38:09;10.63;;;3.37;;
13485;SDS011;6815;59.336;17.998;2023-12-20T09:40:34;9.70;;;3.20;;
13485;SDS011;6815;59.336;17.998;2023-12-20T09:43:10;12.00;;;3.67;;
13485;SDS011;6815;59.336;17.998;2023-12-20T09:45:35;9.20;;;2.83;;
13485;SDS011;6815;59.336;17.998;2023-12-20T09:48:01;9.73;;;3.30;;
13485;SDS011;6815;59.336;17.998;2023-12-20T09:50:30;8.20;;;3.47;;
13485;SDS011;6815;59.336;17.998;2023-12-20T09:52:57;10.67;;;3.00;;
13485;SDS011;6815;59.336;17.998;2023-12-20T09:55:24;12.80;;;3.40;;
13485;SDS011;6815;59.336;17.998;2023-12-20T09:57:49;9.23;;;2.83;;
13485;SDS011;6815;59.336;17.998;2023-12-20T10:00:15;9.77;;;3.03;;
13485;SDS011;6815;59.336;17.998;2023-12-20T10:02:45;10.13;;;2.80;;
13485;SDS011;6815;59.336;17.998;2023-12-20T10:05:10;10.97;;;3.23;;
13485;SDS011;6815;59.336;17.998;2023-12-20T10:07:40;7.43;;;2.93;;
13485;SDS011;6815;59.336;17.998;2023-12-20T10:10:06;5.30;;;2.70;;
13485;SDS011;6815;59.336;17.998;2023-12-20T10:12:33;8.40;;;3.07;;
13485;SDS011;6815;59.336;17.998;2023-12-20T10:14:59;13.50;;;3.00;;
13485;SDS011;6815;59.336;17.998;2023-12-20T10:17:24;11.73;;;2.87;;
13485;SDS011;6815;59.336;17.998;2023-12-20T10:19:54;9.43;;;3.03;;
13485;SDS011;6815;59.336;17.998;2023-12-20T10:22:19;8.33;;;2.97;;
13485;SDS011;6815;59.336;17.998;2023-12-20T10:24:45;7.83;;;2.87;;
13485;SDS011;6815;59.336;17.998;2023-12-20T10:27:11;9.67;;;3.37;;
13485;SDS011;6815;59.336;17.998;2023-12-20T10:29:37;9.87;;;3.03;;
13485;SDS011;6815;59.336;17.998;2023-12-20T10:34:46;10.97;;;3.20;;
13485;SDS011;6815;59.336;17.998;2023-12-20T10:37:12;10.17;;;3.33;;
13485;SDS011;6815;59.336;17.998;2023-12-20T10:39:37;11.20;;;2.90;;
13485;SDS011;6815;59.336;17.998;2023-12-20T10:42:04;14.20;;;3.23;;
13485;SDS011;6815;59.336;17.998;2023-12-20T10:44:29;6.67;;;3.17;;
13485;SDS011;6815;59.336;17.998;2023-12-20T10:46:54;9.10;;;2.70;;
13485;SDS011;6815;59.336;17.998;2023-12-20T10:49:23;8.67;;;2.83;;
13485;SDS011;6815;59.336;17.998;2023-12-20T10:51:49;9.10;;;2.80;;
13485;SDS011;6815;59.336;17.998;2023-12-20T10:54:16;12.10;;;3.10;;
13485;SDS011;6815;59.336;17.998;2023-12-20T10:56:42;9.67;;;2.70;;
13485;SDS011;6815;59.336;17.998;2023-12-20T10:59:07;8.23;;;2.40;;
13485;SDS011;6815;59.336;17.998;2023-12-20T11:01:35;8.10;;;2.70;;
13485;SDS011;6815;59.336;17.998;2023-12-20T11:04:01;15.10;;;3.13;;
13485;SDS011;6815;59.336;17.998;2023-12-20T11:06:33;8.80;;;2.73;;
13485;SDS011;6815;59.336;17.998;2023-12-20T11:11:41;7.57;;;2.37;;
13485;SDS011;6815;59.336;17.998;2023-12-20T11:14:20;8.57;;;2.63;;
13485;SDS011;6815;59.336;17.998;2023-12-20T11:16:47;6.73;;;2.33;;
13485;SDS011;6815;59.336;17.998;2023-12-20T11:19:12;9.20;;;2.40;;
13485;SDS011;6815;59.336;17.998;2023-12-20T11:21:41;10.83;;;2.23;;
13485;SDS011;6815;59.336;17.998;2023-12-20T11:24:06;7.47;;;2.83;;
13485;SDS011;6815;59.336;17.998;2023-12-20T11:26:32;5.23;;;2.30;;
13485;SDS011;6815;59.336;17.998;2023-12-20T11:31:54;7.53;;;2.20;;
13485;SDS011;6815;59.336;17.998;2023-12-20T11:34:19;6.17;;;2.10;;
13485;SDS011;6815;59.336;17.998;2023-12-20T11:36:44;6.13;;;1.87;;
13485;SDS011;6815;59.336;17.998;2023-12-20T11:39:10;6.40;;;1.93;;
13485;SDS011;6815;59.336;17.998;2023-12-20T11:41:36;5.00;;;1.93;;
13485;SDS011;6815;59.336;17.998;2023-12-20T11:44:01;3.57;;;1.63;;
13485;SDS011;6815;59.336;17.998;2023-12-20T11:46:27;5.07;;;2.13;;
13485;SDS011;6815;59.336;17.998;2023-12-20T11:48:53;5.00;;;1.80;;
13485;SDS011;6815;59.336;17.998;2023-12-20T11:51:19;4.50;;;1.90;;
13485;SDS011;6815;59.336;17.998;2023-12-20T11:53:44;7.03;;;2.30;;
13485;SDS011;6815;59.336;17.998;2023-12-20T11:56:10;6.20;;;2.40;;
13485;SDS011;6815;59.336;17.998;2023-12-20T11:58:35;5.37;;;1.70;;
13485;SDS011;6815;59.336;17.998;2023-12-20T12:01:01;5.13;;;2.03;;
13485;SDS011;6815;59.336;17.998;2023-12-20T12:03:29;5.03;;;1.90;;
13485;SDS011;6815;59.336;17.998;2023-12-20T12:05:55;5.93;;;1.57;;
13485;SDS011;6815;59.336;17.998;2023-12-20T12:08:20;6.57;;;2.00;;
13485;SDS011;6815;59.336;17.998;2023-12-20T12:10:46;3.70;;;1.60;;
13485;SDS011;6815;59.336;17.998;2023-12-20T12:13:11;2.63;;;1.43;;
13485;SDS011;6815;59.336;17.998;2023-12-20T12:15:37;6.07;;;1.77;;
13485;SDS011;6815;59.336;17.998;2023-12-20T12:18:02;5.60;;;1.87;;
13485;SDS011;6815;59.336;17.998;2023-12-20T12:20:28;4.07;;;1.50;;
13485;SDS011;6815;59.336;17.998;2023-12-20T12:23:00;3.80;;;1.60;;
13485;SDS011;6815;59.336;17.998;2023-12-20T12:25:26;3.50;;;1.70;;
13485;SDS011;6815;59.336;17.998;2023-12-20T12:27:52;6.17;;;1.90;;
13485;SDS011;6815;59.336;17.998;2023-12-20T12:30:17;4.67;;;1.80;;
13485;SDS011;6815;59.336;17.998;2023-12-20T12:32:43;6.27;;;2.00;;
13485;SDS011;6815;59.336;17.998;2023-12-20T12:35:09;3.00;;;1.83;;
13485;SDS011;6815;59.336;17.998;2023-12-20T12:37:35;5.50;;;2.13;;
13485;SDS011;6815;59.336;17.998;2023-12-20T12:40:03;3.77;;;1.67;;
13485;SDS011;6815;59.336;17.998;2023-12-20T12:42:30;3.40;;;1.40;;
13485;SDS011;6815;59.336;17.998;2023-12-20T12:44:55;4.30;;;1.57;;
13485;SDS011;6815;59.336;17.998;2023-12-20T12:47:21;4.87;;;1.50;;
13485;SDS011;6815;59.336;17.998;2023-12-20T12:49:47;5.93;;;1.70;;
13485;SDS011;6815;59.336;17.998;2023-12-20T12:52:12;3.97;;;1.50;;
13485;SDS011;6815;59.336;17.998;2023-12-20T12:54:37;4.57;;;1.73;;
13485;SDS011;6815;59.336;17.998;2023-12-20T12:57:02;4.27;;;1.77;;
13485;SDS011;6815;59.336;17.998;2023-12-20T12:59:28;4.17;;;1.77;;
13485;SDS011;6815;59.336;17.998;2023-12-20T13:01:53;6.17;;;2.13;;
13485;SDS011;6815;59.336;17.998;2023-12-20T13:04:19;3.30;;;1.90;;
13485;SDS011;6815;59.336;17.998;2023-12-20T13:06:44;5.57;;;2.10;;
13485;SDS011;6815;59.336;17.998;2023-12-20T13:09:09;4.80;;;1.70;;
13485;SDS011;6815;59.336;17.998;2023-12-20T13:11:35;3.00;;;1.80;;
13485;SDS011;6815;59.336;17.998;2023-12-20T13:14:00;3.87;;;1.70;;
13485;SDS011;6815;59.336;17.998;2023-12-20T13:16:26;4.60;;;2.17;;
13485;SDS011;6815;59.336;17.998;2023-12-20T13:18:51;7.60;;;2.10;;
13485;SDS011;6815;59.336;17.998;2023-12-20T13:21:16;4.53;;;2.30;;
13485;SDS011;6815;59.336;17.998;2023-12-20T13:23:42;6.33;;;2.17;;
13485;SDS011;6815;59.336;17.998;2023-12-20T13:26:07;7.10;;;2.30;;
13485;SDS011;6815;59.336;17.998;2023-12-20T13:28:33;5.90;;;1.93;;
13485;SDS011;6815;59.336;17.998;2023-12-20T13:30:58;4.93;;;2.00;;
13485;SDS011;6815;59.336;17.998;2023-12-20T13:33:23;5.80;;;1.97;;
13485;SDS011;6815;59.336;17.998;2023-12-20T13:35:48;4.83;;;1.93;;
13485;SDS011;6815;59.336;17.998;2023-12-20T13:38:14;5.47;;;1.90;;
13485;SDS011;6815;59.336;17.998;2023-12-20T13:40:39;5.00;;;1.90;;
13485;SDS011;6815;59.336;17.998;2023-12-20T13:43:05;4.07;;;1.70;;
13485;SDS011;6815;59.336;17.998;2023-12-20T13:45:31;4.13;;;1.70;;
13485;SDS011;6815;59.336;17.998;2023-12-20T13:47:56;4.23;;;1.67;;
13485;SDS011;6815;59.336;17.998;2023-12-20T13:50:22;5.83;;;1.40;;
13485;SDS011;6815;59.336;17.998;2023-12-20T13:52:47;6.20;;;1.70;;
13485;SDS011;6815;59.336;17.998;2023-12-20T13:55:13;4.47;;;1.73;;
13485;SDS011;6815;59.336;17.998;2023-12-20T13:57:38;3.70;;;1.63;;
13485;SDS011;6815;59.336;17.998;2023-12-20T14:00:05;4.23;;;1.70;;
13485;SDS011;6815;59.336;17.998;2023-12-20T14:02:30;5.70;;;1.67;;
13485;SDS011;6815;59.336;17.998;2023-12-20T14:04:55;3.17;;;1.40;;
13485;SDS011;6815;59.336;17.998;2023-12-20T14:07:21;7.53;;;1.90;;
13485;SDS011;6815;59.336;17.998;2023-12-20T14:09:46;4.63;;;2.07;;
13485;SDS011;6815;59.336;17.998;2023-12-20T14:12:12;4.53;;;1.70;;
13485;SDS011;6815;59.336;17.998;2023-12-20T14:14:37;7.47;;;2.13;;
13485;SDS011;6815;59.336;17.998;2023-12-20T14:17:03;6.20;;;1.83;;
13485;SDS011;6815;59.336;17.998;2023-12-20T14:19:37;3.83;;;1.60;;
13485;SDS011;6815;59.336;17.998;2023-12-20T14:22:03;3.40;;;1.53;;
13485;SDS011;6815;59.336;17.998;2023-12-20T14:24:29;5.53;;;2.20;;
13485;SDS011;6815;59.336;17.998;2023-12-20T14:26:54;5.73;;;1.80;;
13485;SDS011;6815;59.336;17.998;2023-12-20T14:29:20;5.00;;;2.10;;
13485;SDS011;6815;59.336;17.998;2023-12-20T14:31:45;7.67;;;1.97;;
13485;SDS011;6815;59.336;17.998;2023-12-20T14:34:11;5.40;;;1.70;;
13485;SDS011;6815;59.336;17.998;2023-12-20T14:36:36;4.20;;;1.80;;
13485;SDS011;6815;59.336;17.998;2023-12-20T14:39:02;4.40;;;1.73;;
13485;SDS011;6815;59.336;17.998;2023-12-20T14:41:28;4.43;;;2.03;;